Time;durP1;ratioP1;P1;durP2;ratioP2;P2;SDS_P1;SDS_P2;PMS_P1;PMS_P2;Temp;Humidity;BMP_temperature;BMP_pressure;BME280_temperature;BME280_humidity;BME280_pressure;Samples;Min_cycle;Max_cycle;Signal;HPM_P1;HPM_P2
2022/07/20 00:01:47;;;;;;;7.70;6.90;;;31.20;39.80;;;;;;5019871;28;20220;-77
2022/07/20 00:04:13;;;;;;;9.07;8.03;;;31.20;40.20;;;;;;5016320;28;20207;-76
2022/07/20 00:06:39;;;;;;;8.53;7.67;;;31.10;40.20;;;;;;5020254;28;21348;-76
2022/07/20 00:11:49;;;;;;;8.47;7.77;;;31.10;40.40;;;;;;5010384;28;20219;-77
2022/07/20 00:14:15;;;;;;;8.07;7.23;;;31.10;40.50;;;;;;5002286;28;20439;-76
2022/07/20 00:16:41;;;;;;;9.10;7.30;;;31.00;40.40;;;;;;5010150;28;20259;-77
2022/07/20 00:19:07;;;;;;;7.80;7.10;;;31.00;40.00;;;;;;5023835;28;20423;-77
2022/07/20 00:21:32;;;;;;;7.80;7.10;;;31.00;40.20;;;;;;5020635;28;20823;-77
2022/07/20 00:23:58;;;;;;;8.53;7.73;;;30.90;40.10;;;;;;5019971;28;20423;-77
2022/07/20 00:26:24;;;;;;;8.70;7.73;;;30.90;40.10;;;;;;5022581;28;20235;-77
2022/07/20 00:28:50;;;;;;;9.30;7.50;;;30.90;40.40;;;;;;5018547;28;20463;-77
2022/07/20 00:31:17;;;;;;;9.07;8.27;;;30.90;40.40;;;;;;5022184;28;21023;-76
2022/07/20 00:33:46;;;;;;;7.57;6.97;;;30.80;39.90;;;;;;5020524;28;20180;-76
2022/07/20 00:36:13;;;;;;;7.90;7.10;;;30.80;40.30;;;;;;5024209;28;20434;-77
2022/07/20 00:38:38;;;;;;;10.40;7.33;;;30.80;40.70;;;;;;5020251;28;20467;-77
2022/07/20 00:41:04;;;;;;;8.90;8.07;;;30.80;41.00;;;;;;5018969;28;20440;-78
2022/07/20 00:43:57;;;;;;;8.43;7.57;;;30.80;41.40;;;;;;5015912;28;20679;-78
2022/07/20 00:46:23;;;;;;;7.93;7.17;;;30.70;40.70;;;;;;5018721;28;20192;-77
2022/07/20 00:48:49;;;;;;;8.57;7.10;;;30.70;40.60;;;;;;5020892;28;20455;-76
2022/07/20 00:51:15;;;;;;;16.10;7.43;;;30.70;40.70;;;;;;5022556;28;20177;-77
2022/07/20 00:53:41;;;;;;;10.23;7.70;;;30.60;40.80;;;;;;5020287;28;20187;-76
2022/07/20 00:56:08;;;;;;;8.47;7.53;;;30.70;40.30;;;;;;5018399;28;20439;-77
2022/07/20 00:58:34;;;;;;;8.37;7.17;;;30.60;40.10;;;;;;5018716;28;20506;-77
2022/07/20 01:01:00;;;;;;;9.43;8.60;;;30.60;40.10;;;;;;5020926;28;20439;-78
2022/07/20 01:03:25;;;;;;;8.83;8.03;;;30.60;40.40;;;;;;5019383;28;20460;-77
2022/07/20 01:05:51;;;;;;;7.23;6.53;;;30.50;40.20;;;;;;5036263;28;20231;-77
2022/07/20 01:08:16;;;;;;;9.33;7.43;;;30.60;40.20;;;;;;5017490;28;20291;-77
2022/07/20 01:10:42;;;;;;;10.13;7.17;;;30.50;39.90;;;;;;5002982;28;20866;-78
2022/07/20 01:13:08;;;;;;;7.70;7.00;;;30.50;40.10;;;;;;5017561;28;20204;-78
2022/07/20 01:15:33;;;;;;;8.83;8.00;;;30.50;40.20;;;;;;5019809;28;20184;-77
2022/07/20 01:17:59;;;;;;;9.40;7.90;;;30.40;40.00;;;;;;5020272;28;20193;-77
2022/07/20 01:20:25;;;;;;;9.03;7.90;;;30.40;40.10;;;;;;5017124;28;20559;-77
2022/07/20 01:22:51;;;;;;;12.00;7.83;;;30.40;40.10;;;;;;5019007;28;20253;-77
2022/07/20 01:25:17;;;;;;;13.10;8.27;;;30.30;40.10;;;;;;5021688;28;21023;-76
2022/07/20 01:27:43;;;;;;;9.53;8.10;;;30.30;40.10;;;;;;5019675;28;20176;-77
2022/07/20 01:30:09;;;;;;;9.30;7.57;;;30.30;40.30;;;;;;5018271;28;20453;-77
2022/07/20 01:32:35;;;;;;;8.77;7.87;;;30.20;40.40;;;;;;5019596;28;20197;-77
2022/07/20 01:35:00;;;;;;;10.30;7.33;;;30.20;40.50;;;;;;5018547;28;20829;-77
2022/07/20 01:37:28;;;;;;;8.40;7.60;;;30.20;40.60;;;;;;5018230;28;20810;-77
2022/07/20 01:39:53;;;;;;;9.20;8.37;;;30.10;40.60;;;;;;5017730;28;20894;-78
2022/07/20 01:42:19;;;;;;;17.97;8.80;;;30.10;40.70;;;;;;5017685;28;20473;-77
2022/07/20 01:44:44;;;;;;;15.57;14.00;;;30.10;40.80;;;;;;5020408;28;20188;-77
2022/07/20 01:47:10;;;;;;;10.70;9.60;;;30.00;40.90;;;;;;5018201;28;20188;-78
2022/07/20 01:49:35;;;;;;;10.00;8.80;;;30.00;41.10;;;;;;5016538;28;20265;-77
2022/07/20 01:52:01;;;;;;;13.83;12.33;;;30.00;41.40;;;;;;5030399;28;20231;-76
2022/07/20 01:54:27;;;;;;;11.70;9.07;;;29.90;41.60;;;;;;5020897;28;20672;-77
2022/07/20 01:56:52;;;;;;;13.10;8.10;;;29.90;41.60;;;;;;5021275;28;20275;-77
2022/07/20 01:59:18;;;;;;;10.17;8.23;;;29.90;41.60;;;;;;5016701;28;20250;-76
2022/07/20 02:01:44;;;;;;;10.10;8.60;;;29.80;41.70;;;;;;5019245;28;20218;-78
2022/07/20 02:04:09;;;;;;;14.80;9.67;;;29.80;41.60;;;;;;5019481;28;20200;-76
2022/07/20 02:06:35;;;;;;;10.13;9.13;;;29.80;41.60;;;;;;5018456;28;20845;-76
2022/07/20 02:09:01;;;;;;;13.77;9.13;;;29.70;41.70;;;;;;5015408;28;20240;-77
2022/07/20 02:11:26;;;;;;;9.60;8.60;;;29.70;41.60;;;;;;5017675;28;20208;-77
2022/07/20 02:13:52;;;;;;;9.33;8.13;;;29.60;41.60;;;;;;5016084;28;20184;-77
2022/07/20 02:16:17;;;;;;;8.93;7.87;;;29.60;41.80;;;;;;5019497;28;20821;-77
2022/07/20 02:18:55;;;;;;;9.33;7.97;;;29.60;41.90;;;;;;5021523;28;20195;-76
2022/07/20 02:21:22;;;;;;;8.40;7.60;;;29.60;41.90;;;;;;5018057;28;20208;-77
2022/07/20 02:23:48;;;;;;;10.37;7.43;;;29.50;41.90;;;;;;5019301;28;20439;-77
2022/07/20 02:26:14;;;;;;;9.10;7.90;;;29.50;42.20;;;;;;5019626;28;20533;-77
2022/07/20 02:28:40;;;;;;;10.60;8.17;;;29.50;42.30;;;;;;5022334;28;21099;-76
2022/07/20 02:31:06;;;;;;;12.10;8.80;;;29.40;42.50;;;;;;5017368;28;20839;-77
2022/07/20 02:33:32;;;;;;;12.40;8.10;;;29.40;42.40;;;;;;5020617;28;20435;-77
2022/07/20 02:35:58;;;;;;;8.23;7.50;;;29.40;42.50;;;;;;5019168;28;20181;-77
2022/07/20 02:38:25;;;;;;;12.97;8.30;;;29.30;42.60;;;;;;5017152;28;20440;-78
2022/07/20 02:40:51;;;;;;;9.67;8.50;;;29.30;42.60;;;;;;5021870;28;20775;-78
2022/07/20 02:43:17;;;;;;;8.90;7.87;;;29.30;42.70;;;;;;5018591;28;20478;-77
2022/07/20 02:45:42;;;;;;;10.10;9.10;;;29.20;42.60;;;;;;5034258;28;20215;-77
2022/07/20 02:48:08;;;;;;;9.23;8.33;;;29.20;42.70;;;;;;5017518;28;20204;-77
2022/07/20 02:50:37;;;;;;;11.90;7.83;;;29.20;42.80;;;;;;5016161;28;20674;-77
2022/07/20 02:53:03;;;;;;;12.10;8.63;;;29.10;42.90;;;;;;5016312;28;20223;-77
2022/07/20 02:55:29;;;;;;;9.00;8.17;;;29.10;43.10;;;;;;5018195;28;20478;-77
2022/07/20 02:57:55;;;;;;;16.67;9.23;;;29.10;43.40;;;;;;5019528;28;20434;-77
2022/07/20 03:00:21;;;;;;;9.10;8.17;;;29.10;43.40;;;;;;5019807;28;21945;-77
2022/07/20 03:02:47;;;;;;;9.27;8.20;;;29.00;43.50;;;;;;5019893;28;20219;-77
2022/07/20 03:05:14;;;;;;;10.00;8.00;;;29.00;43.50;;;;;;5017260;28;20490;-77
2022/07/20 03:07:40;;;;;;;12.57;8.53;;;29.00;43.50;;;;;;5018468;28;20439;-78
2022/07/20 03:10:06;;;;;;;9.33;8.43;;;28.90;43.50;;;;;;5016410;28;20437;-76
2022/07/20 03:12:32;;;;;;;11.60;8.67;;;28.90;43.50;;;;;;5016455;28;20196;-77
2022/07/20 03:14:58;;;;;;;10.43;8.53;;;28.90;43.50;;;;;;5020946;28;20423;-77
2022/07/20 03:17:24;;;;;;;9.20;8.30;;;28.80;43.60;;;;;;5016494;28;20176;-77
2022/07/20 03:19:50;;;;;;;9.67;8.67;;;28.80;43.70;;;;;;5020062;28;20279;-77
2022/07/20 03:22:16;;;;;;;11.33;8.13;;;28.80;43.90;;;;;;5019711;28;20991;-77
2022/07/20 03:24:41;;;;;;;9.10;7.90;;;28.70;44.10;;;;;;5019544;28;20489;-77
2022/07/20 03:27:07;;;;;;;8.63;7.83;;;28.70;44.10;;;;;;5016817;28;20804;-77
2022/07/20 03:29:33;;;;;;;9.00;7.70;;;28.60;44.70;;;;;;5020502;28;21655;-77
2022/07/20 03:31:59;;;;;;;8.90;8.00;;;28.60;44.30;;;;;;5015801;28;20216;-78
2022/07/20 03:34:24;;;;;;;10.73;8.57;;;28.50;44.50;;;;;;5021699;28;20196;-77
2022/07/20 03:36:50;;;;;;;12.83;9.70;;;28.50;44.60;;;;;;5018198;28;20680;-77
2022/07/20 03:39:16;;;;;;;8.93;8.03;;;28.50;44.80;;;;;;5019989;28;20181;-77
2022/07/20 03:41:42;;;;;;;9.97;8.00;;;28.50;44.90;;;;;;5017377;28;20738;-78
2022/07/20 03:44:08;;;;;;;9.50;8.60;;;28.40;44.90;;;;;;5018891;28;20492;-77
2022/07/20 03:46:33;;;;;;;11.73;8.07;;;28.40;45.00;;;;;;5015443;28;20236;-78
2022/07/20 03:48:59;;;;;;;9.93;7.80;;;28.40;45.20;;;;;;5018134;28;20945;-78
2022/07/20 03:51:24;;;;;;;8.80;7.90;;;28.30;45.20;;;;;;5014721;28;20200;-77
2022/07/20 03:53:50;;;;;;;9.33;8.43;;;28.40;45.30;;;;;;5017685;28;20260;-78
2022/07/20 03:56:15;;;;;;;8.90;8.10;;;28.30;45.40;;;;;;5019907;28;20185;-77
2022/07/20 03:58:41;;;;;;;9.03;8.10;;;28.30;45.50;;;;;;5024790;28;20223;-77
2022/07/20 04:01:07;;;;;;;8.47;7.77;;;28.30;45.40;;;;;;5019659;28;20184;-76
2022/07/20 04:03:32;;;;;;;13.23;8.70;;;28.20;45.40;;;;;;5021806;28;20199;-77
2022/07/20 04:05:58;;;;;;;9.63;8.63;;;28.20;45.40;;;;;;5023828;28;20185;-77
2022/07/20 04:08:24;;;;;;;14.20;8.87;;;28.20;45.40;;;;;;5022631;28;20207;-76
2022/07/20 04:10:49;;;;;;;16.17;9.00;;;28.20;45.60;;;;;;5022004;28;20664;-77
2022/07/20 04:13:15;;;;;;;10.53;8.07;;;28.10;46.20;;;;;;5022575;28;20205;-77
2022/07/20 04:15:40;;;;;;;12.07;9.43;;;28.10;46.90;;;;;;5024716;28;20271;-76
2022/07/20 04:18:06;;;;;;;9.50;8.60;;;28.00;47.60;;;;;;5018792;28;20191;-77
2022/07/20 04:20:31;;;;;;;9.80;8.87;;;27.90;47.90;;;;;;5019157;28;20188;-77
2022/07/20 04:22:57;;;;;;;9.70;8.70;;;27.80;48.10;;;;;;5021160;28;20208;-77
2022/07/20 04:25:22;;;;;;;12.30;9.20;;;27.70;48.40;;;;;;5022771;28;20193;-76
2022/07/20 04:27:49;;;;;;;10.53;9.40;;;27.70;49.10;;;;;;5017588;28;20673;-76
2022/07/20 04:30:16;;;;;;;12.60;9.13;;;27.60;49.20;;;;;;5024975;28;20546;-76
2022/07/20 04:32:42;;;;;;;9.83;8.30;;;27.60;49.60;;;;;;5018071;28;20449;-77
2022/07/20 04:35:09;;;;;;;11.30;9.10;;;27.40;49.90;;;;;;5022322;28;20443;-77
2022/07/20 04:37:36;;;;;;;9.80;8.90;;;27.30;50.20;;;;;;5023213;28;20868;-77
2022/07/20 04:40:03;;;;;;;10.73;8.20;;;27.30;50.90;;;;;;5016569;28;20966;-77
2022/07/20 04:42:28;;;;;;;9.50;8.53;;;27.20;51.40;;;;;;5020958;28;20467;-77
2022/07/20 04:44:54;;;;;;;10.70;8.43;;;27.10;51.60;;;;;;5020135;28;20455;-77
2022/07/20 04:47:19;;;;;;;13.63;9.60;;;26.90;51.40;;;;;;5021182;28;20645;-76
2022/07/20 04:49:45;;;;;;;10.10;9.10;;;26.90;51.30;;;;;;5016741;28;20701;-76
2022/07/20 04:52:11;;;;;;;10.07;9.07;;;26.80;51.10;;;;;;5020039;28;20223;-78
2022/07/20 04:54:36;;;;;;;10.53;8.77;;;26.70;51.20;;;;;;5020422;28;20942;-78
2022/07/20 04:57:02;;;;;;;10.00;8.57;;;26.70;51.50;;;;;;5018237;28;20184;-78
2022/07/20 04:59:28;;;;;;;13.50;8.70;;;26.70;51.70;;;;;;5021157;28;20192;-78
2022/07/20 05:01:54;;;;;;;10.97;9.23;;;26.70;51.70;;;;;;5024932;28;20258;-77
2022/07/20 05:04:19;;;;;;;9.97;8.60;;;26.60;52.10;;;;;;5019193;28;20493;-77
2022/07/20 05:06:45;;;;;;;11.17;9.47;;;26.60;52.30;;;;;;5021841;28;20215;-77
2022/07/20 05:09:11;;;;;;;12.43;8.53;;;26.50;52.50;;;;;;5020893;28;20583;-77
2022/07/20 05:11:38;;;;;;;9.57;8.67;;;26.50;53.00;;;;;;5020627;28;20856;-77
2022/07/20 05:14:04;;;;;;;9.27;8.47;;;26.50;52.90;;;;;;5024141;28;21064;-78
2022/07/20 05:16:30;;;;;;;10.43;9.30;;;26.50;52.80;;;;;;5021475;28;20821;-77
2022/07/20 05:18:55;;;;;;;12.43;9.80;;;26.40;52.90;;;;;;5021791;28;20454;-79
2022/07/20 05:21:21;;;;;;;13.10;9.63;;;26.30;52.90;;;;;;5018834;28;20204;-78
2022/07/20 05:23:47;;;;;;;10.40;8.80;;;26.40;53.10;;;;;;5019967;28;20193;-78
2022/07/20 05:26:13;;;;;;;11.47;9.43;;;26.50;53.10;;;;;;5023911;28;20509;-77
2022/07/20 05:28:41;;;;;;;10.83;9.10;;;26.50;53.30;;;;;;5017588;28;20209;-77
2022/07/20 05:31:08;;;;;;;9.17;8.27;;;26.50;52.80;;;;;;5022478;28;20216;-77
2022/07/20 05:33:35;;;;;;;11.57;8.30;;;26.50;52.90;;;;;;5026199;28;20442;-76
2022/07/20 05:36:02;;;;;;;9.60;8.70;;;26.60;53.30;;;;;;5022892;28;20427;-77
2022/07/20 05:38:29;;;;;;;8.83;8.03;;;26.60;53.50;;;;;;5024303;28;20597;-81
2022/07/20 05:40:55;;;;;;;12.20;8.90;;;26.60;53.40;;;;;;5023893;28;20437;-78
2022/07/20 05:43:21;;;;;;;10.30;8.40;;;26.60;53.30;;;;;;5017609;28;20458;-77
2022/07/20 05:45:47;;;;;;;10.13;8.53;;;26.60;53.40;;;;;;5026861;28;20534;-75
2022/07/20 05:48:14;;;;;;;8.67;7.77;;;26.70;53.20;;;;;;5023862;28;21029;-76
2022/07/20 05:50:41;;;;;;;13.27;9.10;;;26.80;53.10;;;;;;5020205;28;20428;-76
2022/07/20 05:53:08;;;;;;;11.37;8.03;;;26.80;53.00;;;;;;5020680;28;20458;-75
2022/07/20 05:55:34;;;;;;;14.40;8.70;;;26.80;53.30;;;;;;5023703;28;20885;-76
2022/07/20 05:58:01;;;;;;;11.07;7.80;;;26.90;53.30;;;;;;5021618;28;20439;-75
2022/07/20 06:00:27;;;;;;;9.77;8.77;;;26.90;52.90;;;;;;5021949;28;20432;-76
2022/07/20 06:02:52;;;;;;;12.07;8.90;;;26.90;52.80;;;;;;5020826;28;20461;-78
2022/07/20 06:05:18;;;;;;;16.60;7.97;;;27.00;52.90;;;;;;5026190;28;20200;-76
2022/07/20 06:07:44;;;;;;;10.00;8.20;;;27.00;53.00;;;;;;5018983;28;20207;-77
2022/07/20 06:10:10;;;;;;;11.03;8.67;;;27.00;53.10;;;;;;5025844;28;20253;-76
2022/07/20 06:12:36;;;;;;;12.00;9.70;;;26.90;52.90;;;;;;5017182;28;20211;-76
2022/07/20 06:15:01;;;;;;;17.90;9.43;;;27.10;52.90;;;;;;5021831;28;20423;-77
2022/07/20 06:17:38;;;;;;;11.73;8.30;;;27.10;52.90;;;;;;5039549;28;20199;-76
2022/07/20 06:20:07;;;;;;;10.87;8.10;;;27.10;53.00;;;;;;5021730;28;20250;-76
2022/07/20 06:22:34;;;;;;;11.03;8.57;;;27.00;53.00;;;;;;5022336;28;20459;-76
2022/07/20 06:25:00;;;;;;;9.70;8.27;;;27.10;53.00;;;;;;5021860;28;20451;-76
2022/07/20 06:27:26;;;;;;;13.53;7.87;;;27.10;53.00;;;;;;5018364;28;20470;-75
2022/07/20 06:29:51;;;;;;;11.47;9.27;;;27.20;52.90;;;;;;5021616;28;20208;-76
2022/07/20 06:32:17;;;;;;;11.80;9.67;;;27.30;52.90;;;;;;5022325;28;20227;-76
2022/07/20 06:34:42;;;;;;;8.33;7.50;;;27.40;52.90;;;;;;5017783;28;20246;-76
2022/07/20 06:37:08;;;;;;;13.23;8.10;;;27.40;52.70;;;;;;5017596;28;21111;-76
2022/07/20 06:39:34;;;;;;;15.30;8.53;;;27.40;52.70;;;;;;5020163;28;20177;-76
2022/07/20 06:41:59;;;;;;;11.20;8.33;;;27.50;52.80;;;;;;5023646;28;20283;-76
2022/07/20 06:44:25;;;;;;;11.57;8.60;;;27.50;52.70;;;;;;5017586;28;20665;-76
2022/07/20 06:46:51;;;;;;;8.80;8.10;;;27.60;52.80;;;;;;5022711;28;20963;-75
2022/07/20 06:49:16;;;;;;;9.60;8.60;;;27.70;52.60;;;;;;5019546;28;20204;-75
2022/07/20 06:51:42;;;;;;;10.93;8.40;;;27.80;52.10;;;;;;5016258;28;20734;-75
2022/07/20 06:54:07;;;;;;;8.73;7.93;;;27.80;51.60;;;;;;5019970;28;20188;-74
2022/07/20 06:56:33;;;;;;;9.93;8.90;;;27.80;51.60;;;;;;5021737;28;20765;-75
2022/07/20 06:58:58;;;;;;;12.93;8.60;;;27.80;52.30;;;;;;5020491;28;20184;-75
2022/07/20 07:01:24;;;;;;;14.63;9.10;;;27.80;51.80;;;;;;5020051;28;20698;-74
2022/07/20 07:03:49;;;;;;;9.43;8.53;;;27.80;51.80;;;;;;5020717;28;20201;-76
2022/07/20 07:06:16;;;;;;;12.00;8.07;;;27.90;51.60;;;;;;5021529;28;20185;-76
2022/07/20 07:08:42;;;;;;;9.60;8.43;;;28.10;51.60;;;;;;5019797;28;20204;-76
2022/07/20 07:11:07;;;;;;;8.80;7.90;;;28.10;51.30;;;;;;5022877;28;20441;-76
2022/07/20 07:13:33;;;;;;;9.60;7.63;;;28.20;51.90;;;;;;5017439;28;20872;-76
2022/07/20 07:15:59;;;;;;;8.90;8.10;;;28.30;50.90;;;;;;5023488;28;20177;-76
2022/07/20 07:18:25;;;;;;;9.13;8.17;;;28.30;50.90;;;;;;5018934;28;20204;-76
2022/07/20 07:20:50;;;;;;;9.03;8.17;;;28.30;50.90;;;;;;5023787;28;20199;-77
2022/07/20 07:23:16;;;;;;;12.53;8.87;;;28.30;50.90;;;;;;5024624;28;20208;-77
2022/07/20 07:25:42;;;;;;;9.90;8.27;;;28.40;50.80;;;;;;5023551;28;20683;-76
2022/07/20 07:28:07;;;;;;;9.77;7.73;;;28.50;50.70;;;;;;5024409;28;20200;-77
2022/07/20 07:30:33;;;;;;;9.90;8.90;;;28.50;50.80;;;;;;5024782;28;20177;-76
2022/07/20 07:32:59;;;;;;;12.20;8.93;;;28.50;50.90;;;;;;5027567;28;20196;-76
2022/07/20 07:35:24;;;;;;;10.80;8.60;;;28.60;51.00;;;;;;5025548;28;20184;-76
2022/07/20 07:37:50;;;;;;;9.00;8.10;;;28.50;51.10;;;;;;5024770;28;20177;-76
2022/07/20 07:40:16;;;;;;;9.23;7.87;;;28.60;51.00;;;;;;5027121;28;20663;-77
2022/07/20 07:42:41;;;;;;;10.33;8.10;;;28.70;51.10;;;;;;5028385;28;20210;-75
2022/07/20 07:45:08;;;;;;;13.90;8.30;;;28.80;51.50;;;;;;5021994;28;20215;-74
2022/07/20 07:47:34;;;;;;;8.30;7.40;;;28.90;51.50;;;;;;5029032;28;20675;-75
2022/07/20 07:50:00;;;;;;;10.27;8.33;;;29.00;51.40;;;;;;5026030;28;20467;-74
2022/07/20 07:52:26;;;;;;;9.23;8.40;;;29.00;51.10;;;;;;5028158;28;20438;-74
2022/07/20 07:54:51;;;;;;;7.87;7.10;;;29.10;50.40;;;;;;5029019;28;20180;-75
2022/07/20 07:57:17;;;;;;;9.77;8.33;;;29.20;50.20;;;;;;5026563;28;20181;-75
2022/07/20 07:59:42;;;;;;;17.00;9.07;;;29.30;49.80;;;;;;5020251;28;20268;-75
2022/07/20 08:02:08;;;;;;;11.07;7.80;;;29.40;49.50;;;;;;5029790;28;20200;-75
2022/07/20 08:04:34;;;;;;;8.20;7.50;;;29.50;48.90;;;;;;5024381;28;20338;-75
2022/07/20 08:07:00;;;;;;;7.37;6.77;;;29.60;48.80;;;;;;5024853;28;20442;-77
2022/07/20 08:09:26;;;;;;;10.70;8.00;;;29.60;49.00;;;;;;5027056;28;20426;-76
2022/07/20 08:11:52;;;;;;;9.37;8.47;;;29.70;48.90;;;;;;5026383;28;20192;-75
2022/07/20 08:14:18;;;;;;;8.50;7.70;;;29.70;48.80;;;;;;5025962;28;20513;-75
2022/07/20 08:16:44;;;;;;;8.60;7.70;;;29.80;48.80;;;;;;5025073;28;20281;-75
2022/07/20 08:19:10;;;;;;;8.63;7.83;;;29.80;49.00;;;;;;5026571;28;20188;-75
2022/07/20 08:21:35;;;;;;;15.43;8.10;;;29.80;48.90;;;;;;5025386;28;20734;-75
2022/07/20 08:24:05;;;;;;;10.37;9.37;;;29.90;48.80;;;;;;5023927;28;20415;-74
2022/07/20 08:26:31;;;;;;;8.70;7.90;;;29.90;48.90;;;;;;5023574;28;20264;-74
2022/07/20 08:28:56;;;;;;;11.30;9.37;;;29.90;49.00;;;;;;5022771;28;20471;-75
2022/07/20 08:31:22;;;;;;;10.70;9.80;;;30.00;49.30;;;;;;5018844;28;20435;-75
2022/07/20 08:33:48;;;;;;;13.03;11.53;;;30.00;49.60;;;;;;5024761;28;20577;-74
2022/07/20 08:36:13;;;;;;;11.87;10.57;;;29.90;50.00;;;;;;5026912;28;20181;-73
2022/07/20 08:38:39;;;;;;;10.93;9.63;;;30.00;50.60;;;;;;5018462;28;20192;-75
2022/07/20 08:41:07;;;;;;;13.23;11.90;;;29.90;50.90;;;;;;5023577;28;20633;-75
2022/07/20 08:43:33;;;;;;;13.30;11.90;;;29.90;51.80;;;;;;5019151;28;20851;-74
2022/07/20 08:45:59;;;;;;;14.90;11.53;;;29.90;52.10;;;;;;5021967;28;20428;-75
2022/07/20 08:48:26;;;;;;;13.77;12.33;;;30.00;52.60;;;;;;5021712;28;20204;-75
2022/07/20 08:50:52;;;;;;;13.37;12.07;;;30.00;52.80;;;;;;5022800;28;20434;-76
2022/07/20 08:53:19;;;;;;;14.60;13.10;;;30.00;53.40;;;;;;5023120;28;20443;-76
2022/07/20 08:55:45;;;;;;;16.50;13.63;;;30.10;53.50;;;;;;5019784;28;20750;-76
2022/07/20 08:58:11;;;;;;;16.93;14.93;;;30.20;53.90;;;;;;5022269;28;20427;-76
2022/07/20 09:00:37;;;;;;;17.67;16.07;;;30.20;54.30;;;;;;5023473;28;20427;-75
2022/07/20 09:03:06;;;;;;;16.47;15.03;;;30.40;54.60;;;;;;5023212;28;20204;-75
2022/07/20 09:05:37;;;;;;;21.40;18.50;;;30.50;54.80;;;;;;5020292;28;20531;-75
2022/07/20 09:08:05;;;;;;;23.13;18.00;;;30.60;54.80;;;;;;5022428;28;20946;-75
2022/07/20 09:10:37;;;;;;;20.23;17.73;;;30.70;54.60;;;;;;5024860;28;20443;-75
2022/07/20 09:13:03;;;;;;;20.90;18.80;;;30.70;54.50;;;;;;5019887;28;20463;-75
2022/07/20 09:15:42;;;;;;;20.00;18.00;;;30.60;54.50;;;;;;5019048;28;20936;-76
2022/07/20 09:18:15;;;;;;;19.90;17.93;;;30.70;54.50;;;;;;5020171;28;21529;-76
2022/07/20 09:20:50;;;;;;;20.70;18.87;;;30.80;54.40;;;;;;5022985;28;20416;-75
2022/07/20 09:23:20;;;;;;;23.57;18.47;;;30.70;54.30;;;;;;5020572;28;20464;-75
2022/07/20 09:25:54;;;;;;;20.10;17.77;;;30.80;54.40;;;;;;5037918;28;20428;-75
2022/07/20 09:28:21;;;;;;;25.97;19.70;;;30.70;54.60;;;;;;5020565;28;20489;-75
2022/07/20 09:30:54;;;;;;;25.03;18.40;;;30.80;54.60;;;;;;5020968;28;20527;-75
2022/07/20 09:33:28;;;;;;;21.70;18.90;;;30.90;54.40;;;;;;5031058;28;20523;-76
2022/07/20 09:35:56;;;;;;;19.27;17.37;;;30.90;54.30;;;;;;5022147;28;20637;-75
2022/07/20 09:38:32;;;;;;;19.93;18.03;;;30.90;54.30;;;;;;5021274;28;20419;-75
2022/07/20 09:40:59;;;;;;;21.40;18.30;;;31.00;54.40;;;;;;5036933;28;20441;-73
2022/07/20 09:43:32;;;;;;;19.30;17.40;;;31.10;54.30;;;;;;5021902;28;20865;-74
2022/07/20 09:46:18;;;;;;;20.00;17.97;;;31.20;54.30;;;;;;5020919;28;20946;-73
2022/07/20 09:48:46;;;;;;;19.10;17.17;;;31.30;54.20;;;;;;5020479;28;20592;-75
2022/07/20 09:51:24;;;;;;;19.70;17.53;;;31.30;54.10;;;;;;5014759;28;20480;-74
2022/07/20 09:53:52;;;;;;;22.13;17.77;;;31.30;54.20;;;;;;5022042;28;20435;-74
2022/07/20 09:56:19;;;;;;;18.77;17.07;;;31.30;54.30;;;;;;5020093;28;20836;-74
2022/07/20 09:58:47;;;;;;;18.50;16.77;;;31.40;54.40;;;;;;5020958;28;20938;-74
2022/07/20 10:01:24;;;;;;;19.13;17.33;;;31.40;54.30;;;;;;5019557;28;20466;-75
2022/07/20 10:03:52;;;;;;;21.20;17.27;;;31.30;54.30;;;;;;5016917;28;20522;-74
2022/07/20 10:06:19;;;;;;;19.63;17.53;;;31.40;54.50;;;;;;5022967;28;20963;-75
2022/07/20 10:08:45;;;;;;;18.37;16.50;;;31.40;54.90;;;;;;5018151;28;20455;-75
2022/07/20 10:11:12;;;;;;;20.17;18.17;;;31.50;54.80;;;;;;5022240;28;20501;-75
2022/07/20 10:13:40;;;;;;;18.47;16.53;;;31.50;54.60;;;;;;5019443;28;20213;-76
2022/07/20 10:16:20;;;;;;;19.03;17.00;;;31.40;55.00;;;;;;5018561;28;20425;-75
2022/07/20 10:18:47;;;;;;;19.30;15.50;;;31.50;55.10;;;;;;5020046;28;20430;-75
2022/07/20 10:21:42;;;;;;;21.40;16.47;;;31.60;55.10;;;;;;5019645;28;21192;-75
2022/07/20 10:24:22;;;;;;;18.47;16.53;;;31.60;54.80;;;;;;5021982;28;21800;-76
2022/07/20 10:27:15;;;;;;;18.33;16.40;;;31.70;54.80;;;;;;5019465;28;21328;-75
2022/07/20 10:29:48;;;;;;;17.90;16.20;;;31.70;55.00;;;;;;5015337;28;20459;-75
2022/07/20 10:32:17;;;;;;;19.00;16.90;;;31.80;54.90;;;;;;5018514;28;20439;-74
2022/07/20 10:34:48;;;;;;;18.50;16.70;;;31.80;55.10;;;;;;5022460;28;20471;-75
2022/07/20 10:37:39;;;;;;;18.83;16.93;;;31.90;54.90;;;;;;5023648;28;20457;-73
2022/07/20 10:40:19;;;;;;;18.57;16.30;;;31.90;55.00;;;;;;5022463;28;20459;-75
2022/07/20 10:42:49;;;;;;;18.33;16.73;;;32.00;55.20;;;;;;5022963;28;20459;-74
2022/07/20 10:45:20;;;;;;;18.47;16.67;;;32.10;55.40;;;;;;5022295;28;20406;-75
2022/07/20 10:47:49;;;;;;;21.73;19.60;;;32.10;54.50;;;;;;5019245;28;20499;-74
2022/07/20 10:50:21;;;;;;;19.03;17.17;;;32.10;54.60;;;;;;5020954;28;20469;-74
2022/07/20 10:52:56;;;;;;;23.03;20.67;;;32.10;54.60;;;;;;5020424;28;20427;-75
2022/07/20 10:55:36;;;;;;;18.83;16.83;;;32.20;54.60;;;;;;5022964;28;20435;-75
2022/07/20 10:58:07;;;;;;;17.90;16.30;;;32.30;54.90;;;;;;5021892;28;20437;-75
2022/07/20 11:01:07;;;;;;;18.73;17.00;;;32.40;54.10;;;;;;5020025;28;20447;-75
2022/07/20 11:03:39;;;;;;;17.20;15.57;;;32.50;54.10;;;;;;4995148;28;20452;-75
2022/07/20 11:06:24;;;;;;;19.77;17.33;;;32.50;53.70;;;;;;5018504;28;20466;-75
2022/07/20 11:08:51;;;;;;;19.63;17.10;;;32.60;53.80;;;;;;5019563;28;20460;-75
2022/07/20 11:11:23;;;;;;;18.17;16.53;;;32.60;53.10;;;;;;5018619;28;20427;-75
2022/07/20 11:13:50;;;;;;;17.97;16.37;;;32.60;52.60;;;;;;5016525;28;20439;-76
2022/07/20 11:16:21;;;;;;;18.67;16.77;;;32.70;52.60;;;;;;5019760;28;20433;-74
2022/07/20 11:18:47;;;;;;;18.43;16.73;;;32.80;52.60;;;;;;5020105;28;20419;-74
2022/07/20 11:21:13;;;;;;;19.00;17.20;;;32.80;52.10;;;;;;5019492;28;20423;-73
2022/07/20 11:23:48;;;;;;;17.87;16.10;;;32.80;52.40;;;;;;5018294;28;20524;-74
2022/07/20 11:26:17;;;;;;;19.27;17.37;;;32.90;52.40;;;;;;5019983;28;20187;-74
2022/07/20 11:28:49;;;;;;;18.27;16.57;;;33.00;52.10;;;;;;5022374;28;20441;-75
2022/07/20 11:31:20;;;;;;;18.13;16.43;;;33.10;51.90;;;;;;5017696;28;20435;-75
2022/07/20 11:33:48;;;;;;;17.27;15.53;;;33.10;52.20;;;;;;5017669;28;20808;-75
2022/07/20 11:36:19;;;;;;;20.13;17.27;;;33.10;52.30;;;;;;5021114;28;20457;-75
2022/07/20 11:38:48;;;;;;;18.90;17.27;;;33.30;52.40;;;;;;5019535;28;20397;-75
2022/07/20 11:41:19;;;;;;;16.60;14.97;;;33.40;50.90;;;;;;5016748;28;20447;-75
2022/07/20 11:43:45;;;;;;;19.77;14.90;;;33.50;51.50;;;;;;5014709;28;20501;-76
2022/07/20 11:46:26;;;;;;;18.50;16.60;;;33.60;50.40;;;;;;5022285;28;20442;-75
2022/07/20 11:48:55;;;;;;;18.37;16.57;;;33.80;50.90;;;;;;5025124;28;20208;-75
2022/07/20 11:51:20;;;;;;;17.07;15.30;;;33.90;50.60;;;;;;5014535;28;20416;-75
2022/07/20 11:53:46;;;;;;;18.23;14.60;;;34.00;50.10;;;;;;5017265;28;20454;-74
2022/07/20 11:56:14;;;;;;;17.27;15.70;;;34.00;49.70;;;;;;5021674;28;20234;-74
2022/07/20 11:58:41;;;;;;;16.30;15.10;;;34.00;49.90;;;;;;5015922;28;20274;-74
2022/07/20 12:01:10;;;;;;;17.30;13.60;;;33.90;49.40;;;;;;5017188;28;20441;-76
2022/07/20 12:03:38;;;;;;;17.43;15.83;;;34.00;49.60;;;;;;5023721;28;20831;-76
2022/07/20 12:06:14;;;;;;;17.77;15.80;;;34.10;49.20;;;;;;5024007;28;20474;-75
2022/07/20 12:08:41;;;;;;;18.13;16.23;;;34.00;48.90;;;;;;5024531;28;20438;-75
2022/07/20 12:11:08;;;;;;;18.03;14.20;;;34.00;48.90;;;;;;5020174;28;20815;-75
2022/07/20 12:13:49;;;;;;;16.03;14.70;;;33.90;49.10;;;;;;5019349;28;20447;-75
2022/07/20 12:16:16;;;;;;;19.37;14.80;;;34.10;48.90;;;;;;5020744;28;20417;-75
2022/07/20 12:18:46;;;;;;;16.33;14.97;;;34.10;48.20;;;;;;5017205;28;20541;-75
2022/07/20 12:21:27;;;;;;;15.73;14.23;;;34.20;48.20;;;;;;5024387;28;20434;-75
2022/07/20 12:23:54;;;;;;;16.50;14.63;;;34.50;48.00;;;;;;5022183;28;20525;-76
2022/07/20 12:26:35;;;;;;;15.93;14.50;;;34.40;47.60;;;;;;5025127;28;20429;-76
2022/07/20 12:29:20;;;;;;;16.40;14.17;;;34.20;48.20;;;;;;5024262;28;20467;-75
2022/07/20 12:32:04;;;;;;;16.27;14.47;;;34.20;48.30;;;;;;5022005;28;20833;-75
2022/07/20 12:34:33;;;;;;;17.23;15.40;;;34.20;48.40;;;;;;5023732;28;20885;-76
2022/07/20 12:36:59;;;;;;;20.47;16.13;;;34.20;48.30;;;;;;5022289;28;20482;-76
2022/07/20 12:39:40;;;;;;;17.10;15.47;;;34.30;48.50;;;;;;5021600;28;20492;-76
2022/07/20 12:42:15;;;;;;;15.10;13.70;;;34.40;48.10;;;;;;5038588;28;20196;-75
2022/07/20 12:44:42;;;;;;;19.13;15.03;;;34.50;47.80;;;;;;5020772;28;21108;-75